Trenton, NE

11:28 AM CDT on August 31, 2016 (GMT -0500)
APRSWXNET | | Change Station

Elev 2721 ft 40.13 °N, 100.78 °W | Updated 29 minutes ago

Overcast
Overcast
71 °F
Feels Like 71 °F
N
6
Wind Variable Wind from ESE
Gusts 9.0 mph

Today
High -- | Low -- °F
--% Chance of Precip.
Yesterday
High -- | Low -- °F
Precip. -- in
Pressure 30.18 in
Visibility 10.0 miles
Clouds Few 1100 ft
Mostly Cloudy 3200 ft
Overcast 10000 ft
Heat Index 71 °F
Dew Point 65 °F
Humidity 81%
Rainfall in
Snow Depth Not available.
7:11 AM 8:16 PM
Waning Crescent, 1% visible
METAR KMCK 311553Z AUTO 08008KT 10SM FEW011 BKN032 OVC100 22/18 A3023 RMK AO2 SLP220 T02170183
Pressure 30.18 in
Visibility 10.0 miles
Clouds Few 1100 ft
Mostly Cloudy 3200 ft
Overcast 10000 ft
Heat Index 71 °F
Dew Point 65 °F
Humidity 81%
Rainfall in
Snow Depth Not available.
7:11 AM 8:16 PM
Waning Crescent, 1% visible
METAR KMCK 311553Z AUTO 08008KT 10SM FEW011 BKN032 OVC100 22/18 A3023 RMK AO2 SLP220 T02170183

10-Day Weather Forecast

Almanac

Astronomy

Aug. 31, 2016 Rise Set
Actual Time
Civil Twilight
Nautical Twilight
Astronomical Twilight
Moon
Length of Visible Light
Length of Day
Tomorrow will be .
, % of the Moon is Illuminated

Today's Extremes

State Highs State Lows

Community

WunderPhotos

Upload Photos

1,936,109 photos uploaded!

WunderBlog® & News

Nearby

Air Quality

  Air Quality AQ Index Pollutant
Not available.

Snow Depth

Station Depth Elevation

Earthquake Activity

City Distance Mag. Time & Date
Minimum magnitude displayed is 2.5.

Coastal Water Temperatures

Place Temperature

Stations

Nearby Weather Stations

Station Location Temp. Windchill Dew Point Humidity Wind Precip. Elev Updated Type
                   

Watches & Warnings

There are currently no watches in effect.